Time;durP1;ratioP1;P1;durP2;ratioP2;P2;SDS_P1;SDS_P2;PMS_P1;PMS_P2;Temp;Humidity;BMP_temperature;BMP_pressure;BME280_temperature;BME280_humidity;BME280_pressure;Samples;Min_cycle;Max_cycle;Signal;HPM_P1;HPM_P2
2022/08/27 00:01:15;;;;;;;8.23;2.97;;;17.80;99.90;;;;;;4994105;28;20049;-61
2022/08/27 00:03:45;;;;;;;4.05;2.80;;;17.80;99.90;;;;;;5007880;28;20042;-61
2022/08/27 00:06:13;;;;;;;8.63;2.75;;;17.70;99.90;;;;;;5004893;28;20510;-62
2022/08/27 00:08:42;;;;;;;10.00;3.20;;;17.70;99.90;;;;;;4990866;28;20065;-61
2022/08/27 00:11:09;;;;;;;5.95;2.80;;;17.70;99.90;;;;;;5009925;28;20084;-61
2022/08/27 00:13:36;;;;;;;5.18;3.05;;;17.60;99.90;;;;;;4991860;28;20493;-61
2022/08/27 00:16:05;;;;;;;6.80;3.17;;;17.60;99.90;;;;;;4990294;28;20050;-61
2022/08/27 00:18:33;;;;;;;6.97;3.47;;;17.50;99.90;;;;;;5000812;28;20050;-61
2022/08/27 00:21:01;;;;;;;8.23;3.28;;;17.40;99.90;;;;;;4991808;28;20049;-61
2022/08/27 00:23:28;;;;;;;5.65;2.85;;;17.40;99.90;;;;;;4992586;28;20057;-61
2022/08/27 00:25:55;;;;;;;6.57;3.25;;;17.40;99.90;;;;;;4992903;28;20081;-60
2022/08/27 00:28:24;;;;;;;9.88;3.53;;;17.30;99.90;;;;;;4993090;28;20161;-61
2022/08/27 00:30:52;;;;;;;6.78;2.72;;;17.30;99.90;;;;;;4993520;28;20076;-61
2022/08/27 00:33:20;;;;;;;6.90;3.10;;;17.30;99.90;;;;;;4993371;28;20057;-63
2022/08/27 00:35:47;;;;;;;5.78;2.90;;;17.30;99.90;;;;;;4993474;28;20084;-60
2022/08/27 00:38:14;;;;;;;7.38;3.50;;;17.20;99.90;;;;;;5010771;28;20096;-61
2022/08/27 00:40:41;;;;;;;9.52;3.47;;;17.20;99.90;;;;;;4992625;28;20109;-61
2022/08/27 00:43:08;;;;;;;7.78;3.28;;;17.20;99.90;;;;;;5009938;28;20116;-60
2022/08/27 00:45:39;;;;;;;12.15;3.38;;;17.10;99.90;;;;;;5009893;28;20046;-61
2022/08/27 00:48:07;;;;;;;6.38;3.40;;;17.00;99.90;;;;;;5010181;28;20464;-62
2022/08/27 00:50:36;;;;;;;8.07;3.35;;;17.10;99.90;;;;;;4976221;28;20512;-61
2022/08/27 00:53:09;;;;;;;6.82;3.00;;;17.10;99.90;;;;;;4991592;28;20081;-61
2022/08/27 00:55:48;;;;;;;7.95;4.05;;;17.10;99.90;;;;;;4991871;28;20057;-61
2022/08/27 00:58:26;;;;;;;6.47;3.25;;;17.00;99.90;;;;;;4980954;28;20073;-60
2022/08/27 01:00:53;;;;;;;6.85;3.47;;;17.00;99.90;;;;;;4976377;28;20065;-61
2022/08/27 01:03:20;;;;;;;6.82;3.08;;;17.00;99.90;;;;;;4992036;28;20087;-61
2022/08/27 01:05:47;;;;;;;7.53;3.35;;;17.00;99.90;;;;;;5005677;28;20046;-62
2022/08/27 01:08:17;;;;;;;12.35;4.53;;;17.00;99.90;;;;;;5003696;28;20100;-61
2022/08/27 01:10:44;;;;;;;7.63;3.50;;;16.90;99.90;;;;;;4973278;28;20464;-61
2022/08/27 01:13:13;;;;;;;12.50;4.03;;;16.90;99.90;;;;;;5007248;28;20142;-61
2022/08/27 01:15:40;;;;;;;11.25;4.55;;;16.90;99.90;;;;;;5005539;28;20042;-62
2022/08/27 01:18:07;;;;;;;6.60;3.63;;;16.90;99.90;;;;;;4978939;28;20088;-61
2022/08/27 01:20:44;;;;;;;10.95;3.50;;;16.80;99.90;;;;;;4995188;28;20145;-61
2022/08/27 01:23:26;;;;;;;7.80;3.53;;;16.80;99.90;;;;;;4969960;28;20055;-62
2022/08/27 01:25:53;;;;;;;8.02;3.30;;;16.80;99.90;;;;;;4986572;28;20088;-62
2022/08/27 01:28:20;;;;;;;8.90;3.40;;;16.70;99.90;;;;;;4991288;28;20501;-62
2022/08/27 01:30:49;;;;;;;7.78;3.80;;;16.70;99.90;;;;;;5006147;28;20042;-62
2022/08/27 01:33:18;;;;;;;7.25;3.28;;;16.70;99.90;;;;;;5002420;28;20050;-62
2022/08/27 01:35:46;;;;;;;11.52;3.63;;;16.70;99.90;;;;;;5006053;28;20081;-62
2022/08/27 01:38:14;;;;;;;8.25;3.65;;;16.70;99.90;;;;;;5006948;28;20124;-62
2022/08/27 01:40:57;;;;;;;8.75;3.78;;;16.70;99.90;;;;;;4990340;28;20052;-62
2022/08/27 01:43:26;;;;;;;10.77;3.20;;;16.70;99.90;;;;;;4997758;28;20088;-62
2022/08/27 01:45:53;;;;;;;7.18;3.10;;;16.60;99.90;;;;;;5014877;28;20050;-62
2022/08/27 01:48:20;;;;;;;11.73;3.30;;;16.60;99.90;;;;;;5014494;28;20084;-61
2022/08/27 01:50:47;;;;;;;7.22;3.78;;;16.50;99.90;;;;;;4997444;28;20096;-62
2022/08/27 01:53:19;;;;;;;9.65;3.00;;;16.50;99.90;;;;;;4997211;28;20058;-62
2022/08/27 01:55:47;;;;;;;9.10;3.17;;;16.50;99.90;;;;;;4998537;28;20085;-62
2022/08/27 01:58:14;;;;;;;13.52;4.00;;;16.50;99.90;;;;;;5008213;28;20058;-62
2022/08/27 02:00:43;;;;;;;11.10;3.10;;;16.40;99.90;;;;;;5005435;28;20045;-62
2022/08/27 02:03:10;;;;;;;16.60;3.80;;;16.30;99.90;;;;;;4997623;28;20051;-62
2022/08/27 02:05:38;;;;;;;7.57;3.22;;;16.30;99.90;;;;;;5016209;28;20042;-62
2022/08/27 02:08:11;;;;;;;6.28;2.90;;;16.30;99.90;;;;;;5000205;28;20501;-62
2022/08/27 02:10:39;;;;;;;11.15;2.63;;;16.30;99.90;;;;;;5019846;28;20050;-62
2022/08/27 02:13:06;;;;;;;5.47;2.50;;;16.20;99.90;;;;;;5015371;28;20053;-62
2022/08/27 02:15:36;;;;;;;10.82;3.10;;;16.20;99.90;;;;;;5015868;28;20081;-62
2022/08/27 02:18:03;;;;;;;7.72;3.10;;;16.10;99.90;;;;;;4997618;28;20428;-62
2022/08/27 02:20:30;;;;;;;8.52;2.83;;;16.10;99.90;;;;;;5014660;28;20115;-62
2022/08/27 02:22:57;;;;;;;9.30;3.20;;;16.20;99.90;;;;;;5013604;28;20513;-62
2022/08/27 02:25:27;;;;;;;9.50;4.03;;;16.20;99.90;;;;;;5013726;28;20501;-62
2022/08/27 02:27:54;;;;;;;8.57;2.88;;;16.20;99.90;;;;;;4980808;28;20115;-62
2022/08/27 02:30:22;;;;;;;7.60;2.42;;;16.20;99.90;;;;;;4996510;28;20073;-62
2022/08/27 02:32:51;;;;;;;6.05;2.50;;;16.20;99.90;;;;;;5013901;28;20214;-62
2022/08/27 02:35:20;;;;;;;5.13;2.60;;;16.10;99.90;;;;;;5014088;28;20559;-62
2022/08/27 02:37:46;;;;;;;6.93;3.13;;;16.00;99.90;;;;;;4996540;28;20076;-62
2022/08/27 02:40:15;;;;;;;8.15;2.75;;;15.90;99.90;;;;;;4995933;28;20164;-63
2022/08/27 02:42:43;;;;;;;4.75;3.03;;;15.90;99.90;;;;;;4980587;28;20049;-61
2022/08/27 02:45:11;;;;;;;7.72;3.03;;;15.90;99.90;;;;;;5014151;28;20539;-61
2022/08/27 02:47:37;;;;;;;9.25;3.10;;;15.90;99.90;;;;;;4996402;28;20173;-61
2022/08/27 02:50:05;;;;;;;6.85;2.78;;;15.90;99.90;;;;;;5013292;28;20453;-61
2022/08/27 02:52:32;;;;;;;15.95;3.10;;;15.90;99.90;;;;;;4979904;28;20137;-61
2022/08/27 02:54:59;;;;;;;7.50;2.90;;;15.90;99.90;;;;;;4995862;28;20081;-61
2022/08/27 02:57:26;;;;;;;9.80;3.00;;;15.90;99.90;;;;;;4995788;28;20054;-62
2022/08/27 02:59:53;;;;;;;7.72;3.13;;;15.90;99.90;;;;;;5013553;28;20183;-61
2022/08/27 03:02:20;;;;;;;4.03;2.75;;;15.90;99.90;;;;;;5013354;28;20499;-61
2022/08/27 03:04:48;;;;;;;14.10;3.47;;;15.90;99.90;;;;;;4995414;28;20069;-61
2022/08/27 03:07:17;;;;;;;6.90;3.88;;;15.70;99.90;;;;;;5013663;28;20116;-61
2022/08/27 03:09:44;;;;;;;4.47;2.58;;;15.70;99.90;;;;;;4664869;28;9999995;-62
2022/08/27 03:12:11;;;;;;;7.03;3.33;;;15.70;99.90;;;;;;5010135;28;20049;-62
2022/08/27 03:14:39;;;;;;;6.20;3.15;;;15.70;99.90;;;;;;5010669;28;20498;-62
2022/08/27 03:19:52;;;;;;;7.60;3.20;;;15.90;99.90;;;;;;5012530;28;20477;-62
2022/08/27 03:22:18;;;;;;;6.70;2.60;;;15.90;99.90;;;;;;5012851;28;20505;-61
2022/08/27 03:24:45;;;;;;;5.72;2.35;;;15.90;99.90;;;;;;5013122;28;20501;-62
2022/08/27 03:27:14;;;;;;;6.90;3.15;;;15.90;99.90;;;;;;5011503;28;20097;-62
2022/08/27 03:29:41;;;;;;;16.33;4.40;;;15.90;99.90;;;;;;5012856;28;20056;-62
2022/08/27 03:32:08;;;;;;;4.65;2.55;;;15.90;99.90;;;;;;4995274;28;20103;-61
2022/08/27 03:34:35;;;;;;;9.32;2.80;;;15.80;99.90;;;;;;4994862;28;20053;-62
2022/08/27 03:37:02;;;;;;;5.68;2.97;;;15.80;99.90;;;;;;5012735;28;20152;-62
2022/08/27 03:39:29;;;;;;;7.55;3.20;;;15.80;99.90;;;;;;4995590;28;20477;-62
2022/08/27 03:41:56;;;;;;;7.95;3.03;;;15.80;99.90;;;;;;5012205;28;20111;-62
2022/08/27 03:44:23;;;;;;;5.30;3.25;;;15.80;99.90;;;;;;5011587;28;20042;-62
2022/08/27 03:46:50;;;;;;;6.07;2.83;;;15.80;99.90;;;;;;5011899;28;20072;-62
2022/08/27 03:49:18;;;;;;;5.18;2.58;;;15.80;99.90;;;;;;5012205;28;20090;-61
2022/08/27 03:51:48;;;;;;;5.90;2.80;;;15.80;99.90;;;;;;5012400;28;20037;-62
2022/08/27 03:54:15;;;;;;;8.32;3.55;;;15.70;99.90;;;;;;4994715;28;20080;-62
2022/08/27 03:56:42;;;;;;;6.65;2.65;;;15.70;99.90;;;;;;5011964;28;20100;-62
2022/08/27 03:59:08;;;;;;;9.23;3.83;;;15.70;99.90;;;;;;4994839;28;20153;-62
2022/08/27 04:01:35;;;;;;;7.72;3.65;;;15.70;99.90;;;;;;5008327;28;20124;-62
2022/08/27 04:04:02;;;;;;;10.52;3.08;;;15.70;99.90;;;;;;5009676;28;20489;-62
2022/08/27 04:06:29;;;;;;;8.38;3.22;;;15.70;99.90;;;;;;4994531;28;20267;-62
2022/08/27 04:08:56;;;;;;;7.22;3.30;;;15.70;99.90;;;;;;5012231;28;20331;-61
2022/08/27 04:11:23;;;;;;;5.88;3.25;;;15.70;99.90;;;;;;5011919;28;20095;-62
2022/08/27 04:13:50;;;;;;;9.77;3.17;;;15.70;99.90;;;;;;5011602;28;20065;-61
2022/08/27 04:16:17;;;;;;;8.63;2.83;;;15.70;99.90;;;;;;4994893;28;20490;-61
2022/08/27 04:18:44;;;;;;;6.88;3.17;;;15.70;99.90;;;;;;5012160;28;20485;-61
2022/08/27 04:21:11;;;;;;;13.77;2.95;;;15.70;99.90;;;;;;4994599;28;20058;-60
2022/08/27 04:23:39;;;;;;;7.82;2.65;;;15.60;99.90;;;;;;5012170;28;20049;-60
2022/08/27 04:26:07;;;;;;;6.28;3.30;;;15.60;99.90;;;;;;5011779;28;20049;-62
2022/08/27 04:28:34;;;;;;;8.23;3.30;;;15.50;99.90;;;;;;5011637;28;20421;-62
2022/08/27 04:31:04;;;;;;;6.38;2.88;;;15.50;99.90;;;;;;5012158;28;20046;-62
2022/08/27 04:33:33;;;;;;;11.95;3.10;;;15.60;99.90;;;;;;4994619;28;20050;-60
2022/08/27 04:36:09;;;;;;;5.88;3.40;;;15.50;99.90;;;;;;5011906;28;20049;-60
2022/08/27 04:38:36;;;;;;;8.80;2.80;;;15.60;99.90;;;;;;4994453;28;20080;-62
2022/08/27 04:41:25;;;;;;;8.30;3.17;;;15.60;99.90;;;;;;4994274;28;20049;-62
2022/08/27 04:43:56;;;;;;;6.15;2.95;;;15.60;99.90;;;;;;4996921;28;20501;-63
2022/08/27 04:46:27;;;;;;;8.48;3.25;;;15.60;99.90;;;;;;4994794;28;20116;-60
2022/08/27 04:48:55;;;;;;;8.30;3.05;;;15.60;99.90;;;;;;5011201;28;20137;-61
2022/08/27 04:51:22;;;;;;;7.35;2.80;;;15.60;99.90;;;;;;4994358;28;20038;-61
2022/08/27 04:53:49;;;;;;;4.30;2.65;;;15.60;99.90;;;;;;4994411;28;20042;-61
2022/08/27 04:56:17;;;;;;;5.43;2.72;;;15.60;99.90;;;;;;5013865;28;20133;-61
2022/08/27 04:58:44;;;;;;;9.90;2.63;;;15.60;99.90;;;;;;5015316;28;20046;-61
2022/08/27 05:01:22;;;;;;;4.82;2.70;;;15.60;99.90;;;;;;5015475;28;20057;-61
2022/08/27 05:03:49;;;;;;;10.50;2.97;;;15.60;99.90;;;;;;5012875;28;20044;-61
2022/08/27 05:06:17;;;;;;;6.10;2.88;;;15.60;99.90;;;;;;4998038;28;20054;-61
2022/08/27 05:08:44;;;;;;;11.05;2.67;;;15.60;99.90;;;;;;5014967;28;20042;-62
2022/08/27 05:11:13;;;;;;;7.45;3.17;;;15.70;99.90;;;;;;5015179;28;20566;-61
2022/08/27 05:13:44;;;;;;;12.13;2.67;;;15.60;99.90;;;;;;4998061;28;20141;-62
2022/08/27 05:16:12;;;;;;;4.45;2.60;;;15.70;99.90;;;;;;5015323;28;20108;-62
2022/08/27 05:18:39;;;;;;;6.63;2.78;;;15.70;99.90;;;;;;4982080;28;20422;-61
2022/08/27 05:21:25;;;;;;;6.28;2.80;;;15.70;99.90;;;;;;5014907;28;20050;-62
2022/08/27 05:23:53;;;;;;;5.97;2.60;;;15.70;99.90;;;;;;4999640;28;20050;-61
2022/08/27 05:26:20;;;;;;;6.75;2.50;;;15.70;99.90;;;;;;4983443;28;20061;-61
2022/08/27 05:28:47;;;;;;;8.85;3.08;;;15.70;99.90;;;;;;5017811;28;20456;-61
2022/08/27 05:31:14;;;;;;;5.32;2.70;;;15.80;99.90;;;;;;5017535;28;20108;-62
2022/08/27 05:33:41;;;;;;;6.13;2.60;;;15.80;99.90;;;;;;5022657;28;20049;-60
2022/08/27 05:36:14;;;;;;;9.98;2.95;;;15.80;99.90;;;;;;5022452;28;20049;-61
2022/08/27 05:38:42;;;;;;;7.63;2.60;;;15.90;99.90;;;;;;5005822;28;20042;-61
2022/08/27 05:41:10;;;;;;;6.93;3.13;;;15.80;99.90;;;;;;5022773;28;20824;-62
2022/08/27 05:43:38;;;;;;;4.18;2.47;;;15.80;99.90;;;;;;5007287;28;20053;-62
2022/08/27 05:46:07;;;;;;;4.68;2.50;;;15.90;99.90;;;;;;5006514;28;20176;-62
2022/08/27 05:48:34;;;;;;;8.15;2.80;;;15.90;99.90;;;;;;5006663;28;20954;-62
2022/08/27 05:51:21;;;;;;;9.07;2.85;;;15.90;99.90;;;;;;5022554;28;20056;-62
2022/08/27 05:54:05;;;;;;;7.85;2.75;;;16.00;99.90;;;;;;5002947;28;20485;-62
2022/08/27 05:56:35;;;;;;;8.07;3.05;;;16.00;99.90;;;;;;4653372;28;10000660;-61
2022/08/27 06:01:50;;;;;;;7.22;2.70;;;16.00;99.90;;;;;;5003374;28;20145;-61
2022/08/27 06:04:17;;;;;;;6.82;3.00;;;16.00;99.90;;;;;;5004697;28;20054;-61
2022/08/27 06:06:45;;;;;;;6.55;2.92;;;16.10;99.90;;;;;;5002936;28;20089;-61
2022/08/27 06:09:15;;;;;;;10.05;2.83;;;16.20;99.90;;;;;;5003127;28;20139;-61
2022/08/27 06:11:43;;;;;;;9.65;3.00;;;16.30;99.90;;;;;;4998236;28;20056;-62
2022/08/27 06:14:10;;;;;;;14.13;2.80;;;16.30;99.90;;;;;;5001232;28;20093;-61
2022/08/27 06:16:37;;;;;;;5.97;2.63;;;16.40;99.90;;;;;;5011554;28;20567;-61
2022/08/27 06:19:04;;;;;;;5.50;2.60;;;16.40;99.90;;;;;;4994139;28;20081;-61
2022/08/27 06:21:32;;;;;;;10.55;2.70;;;16.50;99.90;;;;;;5011720;28;20049;-61
2022/08/27 06:23:59;;;;;;;9.63;3.33;;;16.60;99.90;;;;;;4995044;28;20050;-62
2022/08/27 06:26:26;;;;;;;11.63;2.47;;;16.50;99.90;;;;;;4993621;28;20080;-61
2022/08/27 06:28:53;;;;;;;7.55;2.97;;;16.60;99.90;;;;;;4994593;28;20116;-61
2022/08/27 06:31:23;;;;;;;5.53;2.70;;;16.60;99.90;;;;;;4993205;28;20670;-61
2022/08/27 06:33:50;;;;;;;10.65;3.13;;;16.60;99.90;;;;;;5011513;28;20050;-61
2022/08/27 06:36:21;;;;;;;8.13;3.15;;;16.60;99.90;;;;;;5011149;28;20505;-61
2022/08/27 06:38:48;;;;;;;6.95;2.85;;;16.60;99.90;;;;;;5010192;28;20437;-61
2022/08/27 06:41:16;;;;;;;6.57;3.30;;;16.60;99.90;;;;;;5011071;28;20058;-61
2022/08/27 06:43:49;;;;;;;6.28;2.72;;;16.70;99.90;;;;;;5009744;28;20061;-61
2022/08/27 06:46:17;;;;;;;8.02;3.67;;;16.70;99.90;;;;;;5010906;28;20054;-62
2022/08/27 06:48:45;;;;;;;10.30;2.78;;;16.70;99.90;;;;;;4992808;28;20064;-62
2022/08/27 06:51:18;;;;;;;7.20;3.00;;;16.80;99.90;;;;;;4993993;28;20058;-62
2022/08/27 06:53:46;;;;;;;8.85;3.42;;;16.80;99.90;;;;;;4993128;28;20050;-62
2022/08/27 06:56:16;;;;;;;6.80;3.05;;;16.90;99.90;;;;;;4993370;28;20049;-62
2022/08/27 06:58:43;;;;;;;5.25;2.65;;;16.90;99.90;;;;;;4993491;28;20525;-62
2022/08/27 07:01:18;;;;;;;9.90;3.58;;;16.90;99.90;;;;;;4994111;28;20054;-62
2022/08/27 07:03:45;;;;;;;7.47;3.20;;;17.00;99.90;;;;;;5011113;28;20045;-62
2022/08/27 07:06:15;;;;;;;16.20;3.03;;;17.00;99.90;;;;;;5022952;28;20057;-61
2022/08/27 07:08:42;;;;;;;8.63;3.08;;;17.10;99.90;;;;;;5002924;28;20076;-63
2022/08/27 07:11:19;;;;;;;7.85;3.05;;;17.10;99.90;;;;;;5019456;28;20036;-60
2022/08/27 07:13:47;;;;;;;8.38;3.13;;;17.20;99.90;;;;;;5028636;28;20053;-61
2022/08/27 07:16:15;;;;;;;5.38;3.00;;;17.30;99.90;;;;;;5030586;28;20367;-61
2022/08/27 07:18:44;;;;;;;10.20;3.63;;;17.40;99.90;;;;;;5026704;28;20026;-61
2022/08/27 07:21:12;;;;;;;11.60;3.60;;;17.50;99.90;;;;;;5009463;28;20104;-62
2022/08/27 07:23:38;;;;;;;8.65;2.88;;;17.60;99.90;;;;;;5009857;28;20060;-60
2022/08/27 07:26:09;;;;;;;12.23;3.20;;;17.70;99.90;;;;;;5009336;28;20054;-59
2022/08/27 07:28:36;;;;;;;6.95;3.10;;;17.60;99.90;;;;;;5028432;28;20042;-59
2022/08/27 07:31:11;;;;;;;11.13;3.20;;;17.60;99.90;;;;;;5034125;28;20057;-59
2022/08/27 07:33:39;;;;;;;8.25;2.88;;;17.70;99.90;;;;;;4999242;28;20034;-58
2022/08/27 07:36:11;;;;;;;8.98;3.30;;;17.80;99.90;;;;;;5026688;28;20096;-58
2022/08/27 07:38:38;;;;;;;8.68;3.20;;;17.80;99.90;;;;;;5024781;28;20536;-59
2022/08/27 07:41:06;;;;;;;6.75;2.67;;;17.80;99.90;;;;;;5001587;28;20054;-59
2022/08/27 07:46:22;;;;;;;7.38;3.00;;;17.90;99.90;;;;;;5024197;28;20054;-59
2022/08/27 07:48:50;;;;;;;12.10;3.20;;;17.90;99.90;;;;;;5019754;28;20058;-59
2022/08/27 07:51:18;;;;;;;9.77;3.22;;;18.00;99.90;;;;;;5020111;28;20046;-57
2022/08/27 07:53:45;;;;;;;10.98;2.60;;;18.00;99.90;;;;;;5021387;28;20058;-60
2022/08/27 07:56:12;;;;;;;7.45;3.10;;;18.00;99.90;;;;;;5017806;28;20053;-59
2022/08/27 07:58:40;;;;;;;12.38;3.78;;;18.00;99.90;;;;;;4987037;28;20057;-59
2022/08/27 08:01:07;;;;;;;11.63;3.25;;;18.10;99.90;;;;;;4967168;28;20076;-60
2022/08/27 08:03:34;;;;;;;9.95;3.28;;;18.10;99.90;;;;;;4998907;28;20512;-58
2022/08/27 08:06:06;;;;;;;8.50;4.05;;;18.10;99.90;;;;;;4997533;28;20049;-59
2022/08/27 08:08:34;;;;;;;7.22;3.08;;;18.20;99.90;;;;;;5001709;28;20073;-60
2022/08/27 08:11:06;;;;;;;8.05;2.97;;;18.30;99.90;;;;;;4984656;28;20078;-59
2022/08/27 08:13:34;;;;;;;7.80;3.35;;;18.30;99.90;;;;;;4984393;28;20056;-59
2022/08/27 08:16:02;;;;;;;7.85;2.83;;;18.30;99.90;;;;;;5003868;28;20556;-59
2022/08/27 08:18:29;;;;;;;14.77;3.97;;;18.40;99.90;;;;;;5001307;28;20054;-60
2022/08/27 08:21:03;;;;;;;6.90;3.03;;;18.40;99.90;;;;;;4995842;28;20075;-59
2022/08/27 08:23:31;;;;;;;8.77;3.22;;;18.50;99.90;;;;;;4983690;28;20125;-59
2022/08/27 08:25:59;;;;;;;9.95;3.47;;;18.50;99.90;;;;;;5010094;28;20632;-60
2022/08/27 08:28:27;;;;;;;12.27;3.35;;;18.50;99.90;;;;;;4993534;28;20092;-60
2022/08/27 08:30:55;;;;;;;7.88;2.70;;;18.60;99.90;;;;;;5012272;28;20088;-60
2022/08/27 08:33:22;;;;;;;12.90;3.45;;;18.70;99.90;;;;;;5014525;28;20076;-60
2022/08/27 08:35:48;;;;;;;15.55;3.50;;;18.70;99.90;;;;;;5004797;28;20505;-60
2022/08/27 08:38:18;;;;;;;7.22;2.70;;;18.80;99.90;;;;;;4995783;28;20406;-59
2022/08/27 08:40:52;;;;;;;7.10;3.08;;;18.90;99.90;;;;;;4955435;28;20077;-59
2022/08/27 08:43:35;;;;;;;13.10;3.25;;;19.00;99.90;;;;;;4991991;28;20108;-61
2022/08/27 08:46:11;;;;;;;10.48;3.55;;;19.10;99.90;;;;;;4994916;28;20386;-59
2022/08/27 08:48:41;;;;;;;10.18;3.53;;;19.20;99.90;;;;;;4977464;28;20133;-60
2022/08/27 08:51:24;;;;;;;6.13;3.47;;;19.20;99.90;;;;;;5012994;28;20045;-59
2022/08/27 08:53:52;;;;;;;4.95;2.80;;;19.30;99.90;;;;;;4993655;28;20048;-60
2022/08/27 08:56:29;;;;;;;9.20;3.58;;;19.40;99.90;;;;;;4994035;28;20046;-60
2022/08/27 08:59:02;;;;;;;12.57;3.42;;;19.50;99.90;;;;;;4996905;28;20042;-62
2022/08/27 09:01:29;;;;;;;10.85;3.03;;;19.60;99.90;;;;;;5011653;28;20050;-59
2022/08/27 09:04:01;;;;;;;5.90;2.20;;;19.70;99.90;;;;;;5013466;28;20120;-59
2022/08/27 09:06:39;;;;;;;10.18;2.78;;;19.80;99.90;;;;;;4995513;28;20072;-61
2022/08/27 09:09:51;;;;;;;9.25;2.75;;;19.90;99.90;;;;;;4995766;28;20045;-59
2022/08/27 09:12:25;;;;;;;8.20;1.90;;;20.00;99.90;;;;;;5012328;28;20561;-59
2022/08/27 09:15:17;;;;;;;5.88;2.05;;;20.10;99.90;;;;;;5004086;28;20089;-60
2022/08/27 09:17:46;;;;;;;14.20;2.67;;;20.10;99.90;;;;;;4981527;28;20046;-60
2022/08/27 09:20:16;;;;;;;13.20;2.58;;;20.20;99.90;;;;;;4996864;28;20058;-59
2022/08/27 09:22:56;;;;;;;9.07;2.20;;;20.30;99.90;;;;;;4996975;28;20140;-59
2022/08/27 09:25:34;;;;;;;6.10;1.67;;;20.40;99.90;;;;;;5014244;28;20087;-59
2022/08/27 09:28:05;;;;;;;8.02;3.28;;;20.50;99.90;;;;;;4972146;28;20065;-59
2022/08/27 09:30:40;;;;;;;8.57;2.42;;;20.70;99.90;;;;;;5013471;28;20045;-59
2022/08/27 09:33:07;;;;;;;6.40;1.73;;;20.70;99.90;;;;;;4986192;28;20077;-59
2022/08/27 09:35:45;;;;;;;14.20;2.85;;;20.80;99.90;;;;;;5017665;28;20077;-56
2022/08/27 09:38:37;;;;;;;4.93;2.20;;;21.10;99.90;;;;;;5017147;28;20050;-58
2022/08/27 09:41:12;;;;;;;5.65;2.20;;;21.50;99.90;;;;;;4991863;28;20053;-58
2022/08/27 09:43:42;;;;;;;12.63;3.58;;;21.90;99.90;;;;;;4967665;28;20073;-58
2022/08/27 09:46:21;;;;;;;6.72;2.33;;;22.10;99.90;;;;;;5016408;28;20476;-58
2022/08/27 09:48:52;;;;;;;10.77;2.60;;;22.40;99.90;;;;;;4991619;28;20142;-58
2022/08/27 09:51:26;;;;;;;14.35;2.88;;;22.50;99.90;;;;;;4998334;28;20050;-59
2022/08/27 09:54:00;;;;;;;10.05;2.53;;;22.90;99.90;;;;;;4972684;28;20519;-59
2022/08/27 09:56:38;;;;;;;7.97;2.78;;;23.30;99.40;;;;;;4980440;28;20045;-59
2022/08/27 09:59:19;;;;;;;9.55;3.20;;;23.50;96.80;;;;;;4987645;28;20074;-58
2022/08/27 10:02:02;;;;;;;4.97;2.40;;;23.60;98.50;;;;;;5013487;28;20401;-59
2022/08/27 10:04:36;;;;;;;10.63;2.70;;;23.80;97.20;;;;;;5014070;28;20046;-59
2022/08/27 10:07:29;;;;;;;6.90;2.60;;;24.10;98.30;;;;;;5014822;28;20038;-59
2022/08/27 10:10:09;;;;;;;10.55;2.70;;;24.20;94.00;;;;;;5015834;28;20493;-59
2022/08/27 10:13:00;;;;;;;15.40;3.38;;;24.40;94.20;;;;;;4982692;28;20137;-60
2022/08/27 10:16:03;;;;;;;8.00;2.75;;;24.40;91.40;;;;;;4999110;28;20053;-60
2022/08/27 10:18:58;;;;;;;10.05;3.47;;;24.30;92.10;;;;;;5012310;28;20046;-60
2022/08/27 10:21:28;;;;;;;8.40;2.38;;;23.80;93.20;;;;;;4968793;28;20058;-59
2022/08/27 10:24:20;;;;;;;7.55;2.35;;;23.60;93.60;;;;;;5015909;28;20108;-60
2022/08/27 10:27:14;;;;;;;10.30;2.83;;;23.50;93.50;;;;;;5012541;28;20123;-60
2022/08/27 10:30:04;;;;;;;10.95;2.53;;;23.50;91.60;;;;;;4996457;28;20054;-58
2022/08/27 10:32:31;;;;;;;9.15;2.00;;;23.30;93.30;;;;;;4991435;28;20513;-59
2022/08/27 10:35:04;;;;;;;10.95;3.50;;;23.30;94.90;;;;;;5015349;28;20395;-60
2022/08/27 10:37:43;;;;;;;9.50;2.25;;;23.20;93.90;;;;;;4998622;28;20050;-60
2022/08/27 10:40:48;;;;;;;12.07;3.30;;;23.20;92.80;;;;;;5016428;28;20084;-60
2022/08/27 10:43:45;;;;;;;7.15;2.30;;;23.00;93.10;;;;;;4995307;28;20112;-60
2022/08/27 10:46:30;;;;;;;8.75;2.30;;;23.00;92.80;;;;;;5016419;28;20161;-59
2022/08/27 10:49:05;;;;;;;7.72;2.20;;;22.90;93.00;;;;;;5009007;28;20084;-59
2022/08/27 10:51:53;;;;;;;9.48;2.67;;;23.00;94.10;;;;;;4998664;28;20129;-59
2022/08/27 10:54:28;;;;;;;7.60;2.67;;;22.90;94.10;;;;;;4998495;28;20077;-59
2022/08/27 10:57:18;;;;;;;10.98;2.70;;;22.90;94.20;;;;;;5015772;28;20057;-59
2022/08/27 11:00:17;;;;;;;8.00;2.97;;;22.80;94.30;;;;;;4981361;28;20148;-59
2022/08/27 11:02:52;;;;;;;9.88;1.90;;;22.80;92.60;;;;;;4982364;28;20088;-60
2022/08/27 11:05:24;;;;;;;6.88;2.15;;;22.90;93.50;;;;;;5015885;28;20071;-59
2022/08/27 11:07:59;;;;;;;5.40;1.85;;;22.90;94.20;;;;;;4998574;28;20057;-60
2022/08/27 11:10:31;;;;;;;5.53;1.77;;;22.90;94.20;;;;;;5015778;28;20046;-60
2022/08/27 11:13:02;;;;;;;7.90;1.85;;;22.80;94.60;;;;;;4981438;28;20112;-59
2022/08/27 11:15:31;;;;;;;8.07;1.98;;;22.70;94.10;;;;;;4982261;28;20097;-60
2022/08/27 11:18:15;;;;;;;7.20;2.10;;;22.70;94.00;;;;;;4981594;28;20050;-60
2022/08/27 11:20:56;;;;;;;5.72;2.20;;;22.70;92.40;;;;;;4998518;28;20049;-59
2022/08/27 11:23:30;;;;;;;5.78;2.33;;;22.70;91.50;;;;;;5016411;28;20410;-60
2022/08/27 11:26:02;;;;;;;8.07;1.60;;;22.80;92.40;;;;;;4983595;28;20053;-60
2022/08/27 11:28:38;;;;;;;7.97;1.65;;;23.00;92.00;;;;;;4982865;28;20363;-59
2022/08/27 11:31:05;;;;;;;5.28;2.25;;;23.20;92.90;;;;;;4998655;28;20421;-59
2022/08/27 11:33:51;;;;;;;4.97;1.30;;;23.30;92.60;;;;;;4651800;28;10001195;-59
2022/08/27 11:36:18;;;;;;;7.45;2.05;;;23.40;91.50;;;;;;4995053;28;20269;-59
2022/08/27 11:38:57;;;;;;;3.70;1.60;;;23.50;92.50;;;;;;5012904;28;20108;-59
2022/08/27 11:41:55;;;;;;;3.10;1.15;;;23.60;85.50;;;;;;4994692;28;20062;-60
2022/08/27 11:44:23;;;;;;;5.97;1.90;;;23.50;85.20;;;;;;4993254;28;20085;-59
2022/08/27 11:47:06;;;;;;;6.43;2.55;;;23.50;89.70;;;;;;4979077;28;20100;-59
2022/08/27 11:49:47;;;;;;;6.95;2.13;;;23.40;88.00;;;;;;4975280;28;20482;-59
2022/08/27 11:52:39;;;;;;;5.70;1.85;;;23.30;87.90;;;;;;4993439;28;20055;-58
2022/08/27 11:55:21;;;;;;;7.13;1.83;;;23.40;90.50;;;;;;5011144;28;20088;-59
2022/08/27 11:57:50;;;;;;;7.60;2.83;;;23.50;87.00;;;;;;5010952;28;20052;-59
2022/08/27 12:00:29;;;;;;;4.25;1.63;;;23.50;90.10;;;;;;4994235;28;20050;-58
2022/08/27 12:03:09;;;;;;;6.57;1.70;;;23.60;90.30;;;;;;5011017;28;20053;-59
2022/08/27 12:05:43;;;;;;;8.70;1.90;;;23.70;89.60;;;;;;4984547;28;20591;-60
2022/08/27 12:08:21;;;;;;;3.42;1.63;;;23.90;90.00;;;;;;5006304;28;20105;-60
2022/08/27 12:11:03;;;;;;;6.38;2.05;;;24.10;88.50;;;;;;4997284;28;20045;-59
2022/08/27 12:13:36;;;;;;;5.15;1.35;;;24.20;88.40;;;;;;4999652;28;20056;-60
2022/08/27 12:16:11;;;;;;;5.60;2.22;;;24.30;85.90;;;;;;4991298;28;20100;-60
2022/08/27 12:18:52;;;;;;;4.30;1.60;;;24.30;85.40;;;;;;4991780;28;20109;-59
2022/08/27 12:21:43;;;;;;;5.40;1.75;;;24.20;81.00;;;;;;5000030;28;20054;-60
2022/08/27 12:24:52;;;;;;;11.38;2.17;;;24.20;81.00;;;;;;5003634;28;20054;-59
2022/08/27 12:27:24;;;;;;;5.78;1.83;;;24.20;80.80;;;;;;4978099;28;20313;-60
2022/08/27 12:29:52;;;;;;;6.80;1.90;;;24.30;86.10;;;;;;5008138;28;20046;-59
2022/08/27 12:32:33;;;;;;;6.35;1.92;;;24.40;82.70;;;;;;4977788;28;20092;-59
2022/08/27 12:35:12;;;;;;;9.57;1.55;;;24.40;80.00;;;;;;4994234;28;20559;-58
2022/08/27 12:37:52;;;;;;;3.45;1.40;;;24.40;77.30;;;;;;4995002;28;20048;-60
2022/08/27 12:40:24;;;;;;;3.33;1.65;;;24.50;80.40;;;;;;4994494;28;20399;-59
2022/08/27 12:43:03;;;;;;;7.30;1.35;;;24.70;80.60;;;;;;5009901;28;20092;-60
2022/08/27 12:45:31;;;;;;;3.40;1.42;;;24.80;78.70;;;;;;4993895;28;20050;-60
2022/08/27 12:47:58;;;;;;;4.60;1.05;;;24.60;77.20;;;;;;4993257;28;20042;-60
2022/08/27 12:50:26;;;;;;;6.35;1.38;;;24.50;78.20;;;;;;4992435;28;20085;-60
2022/08/27 12:52:53;;;;;;;4.97;1.55;;;24.40;78.40;;;;;;4962231;28;20046;-60
2022/08/27 12:55:33;;;;;;;10.30;2.20;;;24.40;78.90;;;;;;5002352;28;20101;-60
2022/08/27 12:58:19;;;;;;;4.30;1.20;;;24.30;75.20;;;;;;5000573;28;20070;-61
2022/08/27 13:01:01;;;;;;;6.72;1.38;;;24.20;72.10;;;;;;4994082;28;20081;-59
2022/08/27 13:03:40;;;;;;;3.80;1.40;;;24.10;73.80;;;;;;4977686;28;20120;-60
2022/08/27 13:06:21;;;;;;;5.35;1.60;;;24.10;75.70;;;;;;4991616;28;20836;-59
2022/08/27 13:08:53;;;;;;;4.47;2.05;;;24.20;74.50;;;;;;4992035;28;20540;-59
2022/08/27 13:11:23;;;;;;;4.15;1.20;;;24.20;75.80;;;;;;5009249;28;20088;-60
2022/08/27 13:13:51;;;;;;;6.38;2.17;;;24.30;76.30;;;;;;5003191;28;20043;-59
2022/08/27 13:16:18;;;;;;;4.50;1.67;;;24.30;76.80;;;;;;5000902;28;20054;-59
2022/08/27 13:18:47;;;;;;;5.13;1.17;;;24.40;76.90;;;;;;4997155;28;20136;-60